Country
Station

 

Weather  for  Johan A. Pengel  -  Suriname    Suriname

  
28 °C (82 °F)
    
 
 

Current METAR for Johan A. Pengel is :

SMJP 191516Z 03014G24KT 1000 +SHRA FEW015CB SCT025 28/24 Q1013 BECMG AT1535 5000 SHRA

 

This is a report for Johan A. Pengel - Suriname.
 
The report was made 24 minutes ago, at 15:16 UTC .
The wind was blowing at a speed of 7.2 meters per second (16.1 miles per hour) with gusts up to 12.3 meters per second (27.6 miles per hour) from north/northeast (030°).
 
The temperature was 28 °C (82 °F), with a dew-point at 24 °C (75 °F).
The temperature felt like 32 °C (89 °F).
 
The atmospheric pressure was 1013 hPa (29.91 inHg).
The relative humidity was 78.9%.
 
There were a few cumulonimbus clouds at a height of 457 meters (1500 feet) and scattered clouds at a height of 762 meters (2500 feet).
 
The overall visibility was 1000 meter (3281 feet).
 
Currently showers of heavy rain.

 
 
 
 

Country :   A   B   C   D   E   F   G   H   I   J   K   L   M   N   O   P   Q   R   S   T   U   V   W   Y   Z

 

Site Info  |  Disclaimer  |  Credits  |  Privacy
Contact us  |  Add to favorites
© 2013-2018 METARs - All rights reserved